PHDRT YGTO-YSMI
Flight info
| Callsign | PHDRT |
|---|---|
| Flight time | N/A |
| Altitude | 3000 |
| Route | 4107S14648E 4109S14650E 4112S14634E 4110S14622E 4121S14616E 4112S14602E 4106S14602E 4059S14544E 4051S14530E 4050S14523E 4046S14518E DCT 4047S14507E |
| Aircraft | PA24/L-SDGRY/S |
Departure
| Time | 2026-05-06 08:14 |
|---|---|
| Airport | George Town Airport (YGTO) |
Arrival
| Time | N/A |
|---|---|
| Airport | Smithton Airport (YSMI) |
| Time | Latitude | Longitude | Altitude | Speed | Heading |
|---|---|---|---|---|---|
| 2026-05-06 07:54 | -41.07950 | 146.84049 | 143 ft | 0 kts | 324° |
| 2026-05-06 08:09 | -41.07945 | 146.84045 | 143 ft | 2 kts | 342° |
| 2026-05-06 08:09 | -41.07916 | 146.84046 | 143 ft | 6 kts | 4° |
| 2026-05-06 08:10 | -41.07883 | 146.84050 | 144 ft | 5 kts | 5° |
| 2026-05-06 08:10 | -41.07823 | 146.84042 | 144 ft | 12 kts | 340° |
| 2026-05-06 08:10 | -41.07748 | 146.83982 | 142 ft | 13 kts | 320° |
| 2026-05-06 08:10 | -41.07677 | 146.83980 | 147 ft | 7 kts | 20° |
| 2026-05-06 08:11 | -41.07659 | 146.83991 | 148 ft | 0 kts | 20° |
| 2026-05-06 08:11 | -41.07655 | 146.84009 | 148 ft | 6 kts | 103° |
| 2026-05-06 08:11 | -41.07668 | 146.84061 | 150 ft | 8 kts | 96° |
| 2026-05-06 08:11 | -41.07659 | 146.84067 | 149 ft | 0 kts | 316° |
| 2026-05-06 08:13 | -41.07640 | 146.84042 | 149 ft | 13 kts | 314° |
| 2026-05-06 08:13 | -41.07634 | 146.83998 | 147 ft | 7 kts | 257° |
| 2026-05-06 08:13 | -41.07573 | 146.83830 | 141 ft | 46 kts | 292° |
| 2026-05-06 08:13 | -41.07384 | 146.83370 | 274 ft | 64 kts | 296° |
| 2026-05-06 08:14 | -41.06997 | 146.82907 | 458 ft | 76 kts | 309° |
| 2026-05-06 08:14 | -41.06757 | 146.82309 | 759 ft | 80 kts | 269° |
| 2026-05-06 08:14 | -41.07038 | 146.81690 | 1032 ft | 87 kts | 216° |
| 2026-05-06 08:14 | -41.07683 | 146.81690 | 1231 ft | 102 kts | 179° |
| 2026-05-06 08:15 | -41.08354 | 146.82026 | 1460 ft | 106 kts | 172° |
| 2026-05-06 08:15 | -41.09028 | 146.82457 | 1669 ft | 108 kts | 167° |
| 2026-05-06 08:15 | -41.09689 | 146.82907 | 1926 ft | 107 kts | 171° |
| 2026-05-06 08:15 | -41.10398 | 146.82849 | 2146 ft | 95 kts | 217° |
| 2026-05-06 08:16 | -41.10877 | 146.82476 | 2471 ft | 75 kts | 225° |
| 2026-05-06 08:16 | -41.11359 | 146.82084 | 2570 ft | 82 kts | 221° |
| 2026-05-06 08:16 | -41.11826 | 146.81680 | 2767 ft | 87 kts | 224° |
| 2026-05-06 08:16 | -41.12419 | 146.81385 | 2911 ft | 93 kts | 199° |
| 2026-05-06 08:17 | -41.13098 | 146.81526 | 2983 ft | 113 kts | 177° |
| 2026-05-06 08:17 | -41.13889 | 146.81901 | 3090 ft | 129 kts | 172° |
| 2026-05-06 08:17 | -41.14830 | 146.82271 | 3027 ft | 146 kts | 172° |
| 2026-05-06 08:17 | -41.15721 | 146.82807 | 3293 ft | 139 kts | 173° |
| 2026-05-06 08:18 | -41.16700 | 146.82648 | 3129 ft | 140 kts | 217° |
| 2026-05-06 08:18 | -41.17406 | 146.82024 | 3298 ft | 123 kts | 229° |
| 2026-05-06 08:18 | -41.18093 | 146.81332 | 3253 ft | 124 kts | 225° |
| 2026-05-06 08:18 | -41.18692 | 146.80493 | 3134 ft | 130 kts | 241° |
| 2026-05-06 08:19 | -41.19078 | 146.79395 | 2982 ft | 132 kts | 261° |
| 2026-05-06 08:19 | -41.19143 | 146.78201 | 2901 ft | 128 kts | 276° |
| 2026-05-06 08:19 | -41.18928 | 146.77060 | 2821 ft | 128 kts | 288° |
| 2026-05-06 08:19 | -41.18565 | 146.75979 | 2744 ft | 128 kts | 295° |
| 2026-05-06 08:20 | -41.18053 | 146.75000 | 2620 ft | 131 kts | 306° |
| 2026-05-06 08:20 | -41.17409 | 146.74177 | 2629 ft | 125 kts | 310° |
| 2026-05-06 08:20 | -41.16784 | 146.73414 | 2666 ft | 122 kts | 304° |
| 2026-05-06 08:20 | -41.16307 | 146.72494 | 2701 ft | 115 kts | 288° |
| 2026-05-06 08:21 | -41.16120 | 146.71529 | 2781 ft | 109 kts | 271° |
| 2026-05-06 08:21 | -41.16212 | 146.70533 | 2824 ft | 105 kts | 253° |
| 2026-05-06 08:21 | -41.16551 | 146.69710 | 2796 ft | 103 kts | 240° |
| 2026-05-06 08:21 | -41.17008 | 146.69014 | 2905 ft | 96 kts | 233° |
| 2026-05-06 08:22 | -41.17484 | 146.68423 | 2988 ft | 94 kts | 232° |
| 2026-05-06 08:22 | -41.17962 | 146.67804 | 2990 ft | 97 kts | 234° |
| 2026-05-06 08:22 | -41.18408 | 146.67104 | 3001 ft | 101 kts | 241° |
| 2026-05-06 08:22 | -41.18768 | 146.66319 | 3010 ft | 99 kts | 250° |
| 2026-05-06 08:23 | -41.18999 | 146.65449 | 2997 ft | 101 kts | 259° |
| 2026-05-06 08:23 | -41.19099 | 146.64529 | 2993 ft | 100 kts | 266° |
| 2026-05-06 08:23 | -41.19101 | 146.63618 | 2982 ft | 97 kts | 270° |
| 2026-05-06 08:23 | -41.19062 | 146.62737 | 2975 ft | 94 kts | 271° |
| 2026-05-06 08:24 | -41.19025 | 146.61879 | 2979 ft | 92 kts | 269° |
| 2026-05-06 08:24 | -41.19023 | 146.61047 | 2984 ft | 89 kts | 266° |
| 2026-05-06 08:24 | -41.19072 | 146.60256 | 2988 ft | 84 kts | 262° |
| 2026-05-06 08:24 | -41.19178 | 146.59515 | 2987 ft | 79 kts | 257° |
| 2026-05-06 08:25 | -41.19329 | 146.58834 | 2980 ft | 75 kts | 254° |
| 2026-05-06 08:25 | -41.19518 | 146.58195 | 2971 ft | 74 kts | 252° |
| 2026-05-06 08:25 | -41.19718 | 146.57589 | 2962 ft | 69 kts | 251° |
| 2026-05-06 08:25 | -41.19903 | 146.57034 | 2952 ft | 63 kts | 251° |
| 2026-05-06 08:26 | -41.20061 | 146.56516 | 2932 ft | 60 kts | 252° |
| 2026-05-06 08:26 | -41.20164 | 146.55966 | 2842 ft | 61 kts | 258° |
| 2026-05-06 08:26 | -41.20204 | 146.55410 | 2755 ft | 62 kts | 265° |
| 2026-05-06 08:26 | -41.20178 | 146.54837 | 2656 ft | 62 kts | 272° |
| 2026-05-06 08:27 | -41.20085 | 146.54260 | 2541 ft | 65 kts | 278° |
| 2026-05-06 08:27 | -41.19931 | 146.53688 | 2421 ft | 67 kts | 284° |
| 2026-05-06 08:27 | -41.19732 | 146.53122 | 2295 ft | 68 kts | 288° |
| 2026-05-06 08:27 | -41.19503 | 146.52562 | 2144 ft | 71 kts | 289° |
| 2026-05-06 08:28 | -41.19266 | 146.51980 | 2003 ft | 72 kts | 289° |
| 2026-05-06 08:28 | -41.19040 | 146.51368 | 1832 ft | 74 kts | 287° |
| 2026-05-06 08:28 | -41.18845 | 146.50741 | 1660 ft | 74 kts | 284° |
| 2026-05-06 08:28 | -41.18689 | 146.50091 | 1466 ft | 72 kts | 281° |
| 2026-05-06 08:29 | -41.18585 | 146.49449 | 1220 ft | 72 kts | 278° |
| 2026-05-06 08:29 | -41.18510 | 146.48779 | 987 ft | 75 kts | 275° |
| 2026-05-06 08:29 | -41.18475 | 146.48065 | 748 ft | 79 kts | 275° |
| 2026-05-06 08:29 | -41.18444 | 146.47326 | 484 ft | 82 kts | 276° |
| 2026-05-06 08:30 | -41.18394 | 146.46604 | 271 ft | 76 kts | 277° |
| 2026-05-06 08:30 | -41.18383 | 146.46463 | 225 ft | 0 kts | 277° |
| 2026-05-06 08:31 | -41.18383 | 146.46462 | 227 ft | 0 kts | 278° |